Aline, Oklahoma
Current Conditions -  °F | °C
As of 4:35 PM on Monday 24 Nov 2014 (Local Time) from KAVK Reporting Station
Clear Clear  
Wind Chill: 54°   Ceiling: Unl
Heat Index: 54°   Visibility: 10mi
Dew Point: 16°   Wind: 13mph
Humidity: 22%   Direction: 330°NNW
Pressure: 30"   Gusts: 16mph
Location:  36.51°N, 98.45°W
Report Text: KAVK 242235Z AUTO 33011G14KT 10SM CLR 12/M09 A3000 RMK AO2
Loading
Personal Weather Stations






























Interactive Weather Map New forecast layout! Learn more

10-Day Weather Forecast

Advertisements
Track Severe Weather on mobile